createdAt,value
2022-10-15T00:00:41.708Z,9.77
2022-10-15T00:03:08.475Z,9.64
2022-10-15T00:05:39.292Z,9.55
2022-10-15T00:08:07.833Z,9.72
2022-10-15T00:10:35.171Z,9.58
2022-10-15T00:15:30.103Z,9.53
2022-10-15T00:17:56.840Z,9.43
2022-10-15T00:20:23.536Z,9.32
2022-10-15T00:22:50.238Z,9.26
2022-10-15T00:25:16.905Z,9.39
2022-10-15T00:27:43.599Z,9.40
2022-10-15T00:30:10.875Z,9.18
2022-10-15T00:32:37.604Z,9.15
2022-10-15T00:35:04.697Z,9.16
2022-10-15T00:37:31.404Z,8.82
2022-10-15T00:39:58.161Z,9.09
2022-10-15T00:42:25.368Z,9.04
2022-10-15T00:44:57.725Z,9.12
2022-10-15T00:47:27.245Z,9.11
2022-10-15T00:50:00.139Z,8.87
2022-10-15T00:52:59.087Z,9.46
2022-10-15T00:55:28.578Z,9.44
2022-10-15T00:57:56.539Z,9.29
2022-10-15T01:00:23.354Z,9.16
2022-10-15T01:02:50.189Z,9.28
2022-10-15T01:05:18.455Z,9.33
2022-10-15T01:07:45.312Z,9.33
2022-10-15T01:10:12.854Z,9.26
2022-10-15T01:12:45.334Z,9.29
2022-10-15T01:15:50.496Z,9.32
2022-10-15T01:18:37.249Z,9.30
2022-10-15T01:21:21.948Z,9.29
2022-10-15T01:24:36.982Z,9.37
2022-10-15T01:27:36.325Z,9.44
2022-10-15T01:30:31.702Z,9.36
2022-10-15T01:33:08.075Z,9.35
2022-10-15T01:36:19.824Z,9.36
2022-10-15T01:38:49.711Z,9.42
2022-10-15T01:41:35.849Z,9.43
2022-10-15T01:44:17.899Z,9.43
2022-10-15T01:47:14.565Z,9.41
2022-10-15T01:49:44.364Z,9.40
2022-10-15T01:52:17.971Z,9.32
2022-10-15T01:54:47.545Z,9.39
2022-10-15T01:57:15.738Z,9.43
2022-10-15T01:59:43.813Z,9.52
2022-10-15T02:02:10.584Z,9.23
2022-10-15T02:04:37.330Z,9.46
2022-10-15T02:07:03.945Z,9.45
2022-10-15T02:10:02.715Z,9.29
2022-10-15T02:12:47.555Z,9.46
2022-10-15T02:15:21.656Z,9.42
2022-10-15T02:18:12.054Z,9.50
2022-10-15T02:20:57.934Z,9.43
2022-10-15T02:23:35.496Z,9.62
2022-10-15T02:26:06.709Z,9.59
2022-10-15T02:28:36.927Z,9.56
2022-10-15T02:31:05.686Z,9.52
2022-10-15T02:33:34.953Z,9.59
2022-10-15T02:36:02.078Z,9.54
2022-10-15T02:38:33.040Z,9.42
2022-10-15T02:41:00.834Z,9.70
2022-10-15T02:43:27.705Z,9.57
2022-10-15T02:45:54.409Z,9.53
2022-10-15T02:48:21.184Z,9.54
2022-10-15T02:50:47.907Z,9.63
2022-10-15T02:53:14.798Z,9.56
2022-10-15T02:55:41.560Z,9.49
2022-10-15T02:58:08.735Z,9.45
2022-10-15T03:00:35.502Z,9.39
2022-10-15T03:03:02.267Z,9.54
2022-10-15T03:05:29.163Z,9.59
2022-10-15T03:07:56.375Z,9.59
2022-10-15T03:10:23.148Z,9.50
2022-10-15T03:12:49.875Z,9.59
2022-10-15T03:15:16.904Z,9.55
2022-10-15T03:17:43.643Z,9.62
2022-10-15T03:20:10.463Z,9.57
2022-10-15T03:22:37.154Z,9.63
2022-10-15T03:25:04.374Z,9.74
2022-10-15T03:27:31.065Z,9.82
2022-10-15T03:29:57.708Z,9.80
2022-10-15T03:32:26.484Z,9.67
2022-10-15T03:34:53.232Z,9.69
2022-10-15T03:37:20.264Z,9.63
2022-10-15T03:39:47.208Z,9.61
2022-10-15T03:42:15.974Z,9.72
2022-10-15T03:44:42.771Z,9.76
2022-10-15T03:47:09.607Z,9.74
2022-10-15T03:49:36.342Z,9.64
2022-10-15T03:52:03.242Z,9.66
2022-10-15T03:54:29.939Z,9.70
2022-10-15T03:56:56.767Z,9.60
2022-10-15T03:59:23.526Z,9.72
2022-10-15T04:01:50.796Z,9.65
2022-10-15T04:04:26.520Z,9.71
2022-10-15T04:06:53.307Z,9.69
2022-10-15T04:09:20.112Z,9.77
2022-10-15T04:11:47.490Z,9.61
2022-10-15T04:14:14.298Z,9.65
2022-10-15T04:16:41.019Z,9.64
2022-10-15T04:19:10.286Z,9.72
2022-10-15T04:21:38.257Z,9.71
2022-10-15T04:24:05.496Z,9.71
2022-10-15T04:26:32.523Z,9.62
2022-10-15T04:28:59.355Z,9.67
2022-10-15T04:31:26.214Z,9.57
2022-10-15T04:33:53.290Z,9.55
2022-10-15T04:36:20.056Z,9.60
2022-10-15T04:38:46.792Z,9.57
2022-10-15T04:41:13.789Z,9.89
2022-10-15T04:43:40.839Z,9.76
2022-10-15T04:46:08.689Z,9.77
2022-10-15T04:48:38.989Z,9.64
2022-10-15T04:51:14.795Z,9.68
2022-10-15T04:53:45.204Z,9.66
2022-10-15T04:56:15.536Z,9.65
2022-10-15T04:58:43.036Z,9.71
2022-10-15T05:01:12.699Z,9.75
2022-10-15T05:03:44.156Z,9.77
2022-10-15T05:06:19.736Z,9.74
2022-10-15T05:08:47.201Z,9.78
2022-10-15T05:11:19.159Z,9.87
2022-10-15T05:13:46.617Z,9.93
2022-10-15T05:16:22.666Z,9.93
2022-10-15T05:18:52.530Z,9.80
2022-10-15T05:21:20.097Z,9.85
2022-10-15T05:23:47.448Z,9.90
2022-10-15T05:26:16.501Z,9.82
2022-10-15T05:28:43.281Z,9.82
2022-10-15T05:31:17.594Z,9.81
2022-10-15T05:33:45.792Z,9.81
2022-10-15T05:36:17.362Z,9.95
2022-10-15T05:38:50.076Z,9.90
2022-10-15T05:41:17.054Z,9.85
2022-10-15T05:43:47.577Z,10.00
2022-10-15T05:46:15.198Z,9.90
2022-10-15T05:48:41.894Z,9.89
2022-10-15T05:51:12.267Z,9.88
2022-10-15T05:53:39.806Z,9.86
2022-10-15T05:56:08.289Z,10.02
2022-10-15T05:58:37.538Z,10.10
2022-10-15T06:01:07.767Z,10.05
2022-10-15T06:03:35.438Z,10.06
2022-10-15T06:06:02.396Z,10.02
2022-10-15T06:08:30.858Z,10.03
2022-10-15T06:11:06.803Z,10.08
2022-10-15T06:13:38.192Z,10.08
2022-10-15T06:16:05.536Z,10.16
2022-10-15T06:18:32.529Z,10.27
2022-10-15T06:20:59.257Z,10.21
2022-10-15T06:23:26.056Z,10.19
2022-10-15T06:25:52.814Z,10.17
2022-10-15T06:28:19.803Z,10.33
2022-10-15T06:30:46.575Z,10.43
2022-10-15T06:33:13.560Z,10.39
2022-10-15T06:35:41.477Z,10.44
2022-10-15T06:38:09.013Z,10.51
2022-10-15T06:40:35.785Z,10.63
2022-10-15T06:43:12.658Z,10.66
2022-10-15T06:45:42.857Z,10.56
2022-10-15T06:48:09.820Z,10.57
2022-10-15T06:50:37.942Z,10.60
2022-10-15T06:53:05.868Z,10.62
2022-10-15T06:55:33.383Z,10.71
2022-10-15T06:58:00.625Z,10.78
2022-10-15T07:00:28.025Z,10.76
2022-10-15T07:02:55.327Z,10.83
2022-10-15T07:05:22.344Z,10.90
2022-10-15T07:07:56.387Z,10.99
2022-10-15T07:10:23.930Z,10.97
2022-10-15T07:12:50.798Z,11.16
2022-10-15T07:15:17.957Z,11.18
2022-10-15T07:17:52.337Z,11.20
2022-10-15T07:20:23.469Z,11.13
2022-10-15T07:22:55.933Z,11.32
2022-10-15T07:25:23.351Z,11.26
2022-10-15T07:27:50.247Z,11.38
2022-10-15T07:30:17.267Z,11.29
2022-10-15T07:32:46.336Z,11.31
2022-10-15T07:35:13.684Z,11.35
2022-10-15T07:37:40.986Z,11.48
2022-10-15T07:40:08.762Z,11.57
2022-10-15T07:42:35.619Z,11.76
2022-10-15T07:45:02.263Z,11.67
2022-10-15T07:47:29.103Z,11.61
2022-10-15T07:49:56.742Z,11.70
2022-10-15T07:52:23.708Z,11.67
2022-10-15T07:54:50.549Z,11.76
2022-10-15T07:57:18.233Z,11.83
2022-10-15T07:59:45.426Z,11.91
2022-10-15T08:02:19.367Z,12.02
2022-10-15T08:04:46.144Z,11.86
2022-10-15T08:07:13.100Z,12.00
2022-10-15T08:09:39.987Z,12.16
2022-10-15T08:12:07.227Z,12.22
2022-10-15T08:14:35.057Z,12.30
2022-10-15T08:17:03.338Z,12.16
2022-10-15T08:19:30.195Z,12.21
2022-10-15T08:21:58.749Z,12.24
2022-10-15T08:24:25.735Z,12.39
2022-10-15T08:26:52.548Z,12.31
2022-10-15T08:29:20.045Z,12.43
2022-10-15T08:31:46.933Z,12.39
2022-10-15T08:34:13.774Z,12.30
2022-10-15T08:36:40.906Z,12.38
2022-10-15T08:39:09.420Z,12.49
2022-10-15T08:41:41.724Z,12.52
2022-10-15T08:44:31.386Z,12.57
2022-10-15T08:47:40.479Z,12.60
2022-10-15T08:50:26.679Z,12.58
2022-10-15T08:52:56.120Z,12.58
2022-10-15T08:58:02.330Z,12.69
2022-10-15T09:00:41.757Z,12.72
2022-10-15T09:03:30.080Z,12.75
2022-10-15T09:06:06.127Z,12.74
2022-10-15T09:08:46.745Z,12.82
2022-10-15T09:11:43.109Z,12.91
2022-10-15T09:14:16.071Z,12.96
2022-10-15T09:16:46.397Z,12.97
2022-10-15T09:19:22.177Z,12.83
2022-10-15T09:21:51.128Z,12.87
2022-10-15T09:24:30.558Z,12.97
2022-10-15T09:27:26.156Z,12.99
2022-10-15T09:29:53.538Z,13.25
2022-10-15T09:32:31.653Z,13.34
2022-10-15T09:35:30.838Z,13.30
2022-10-15T09:38:22.342Z,13.19
2022-10-15T09:41:37.410Z,13.21
2022-10-15T09:44:11.114Z,13.38
2022-10-15T09:46:44.915Z,13.47
2022-10-15T09:49:36.226Z,13.60
2022-10-15T09:52:21.954Z,13.56
2022-10-15T09:55:00.495Z,13.62
2022-10-15T09:57:30.450Z,13.90
2022-10-15T10:00:03.278Z,13.88
2022-10-15T10:02:30.382Z,13.83
2022-10-15T10:04:57.662Z,13.71
2022-10-15T10:07:36.968Z,13.77
2022-10-15T10:10:25.947Z,13.70
2022-10-15T10:12:55.310Z,13.84
2022-10-15T10:15:22.286Z,13.99
2022-10-15T10:17:53.750Z,14.03
2022-10-15T10:20:22.948Z,14.12
2022-10-15T10:22:55.988Z,14.15
2022-10-15T10:25:31.736Z,14.06
2022-10-15T10:28:14.945Z,13.96
2022-10-15T10:31:00.435Z,14.05
2022-10-15T10:33:28.858Z,14.32
2022-10-15T10:35:56.263Z,14.27
2022-10-15T10:38:25.006Z,14.20
2022-10-15T10:40:54.098Z,14.21
2022-10-15T10:43:28.297Z,14.34
2022-10-15T10:46:02.876Z,14.31
2022-10-15T10:48:45.333Z,14.49
2022-10-15T10:51:18.245Z,14.41
2022-10-15T10:53:59.906Z,14.37
2022-10-15T10:56:41.936Z,14.73
2022-10-15T10:59:40.654Z,14.77
2022-10-15T11:02:12.336Z,14.68
2022-10-15T11:04:40.237Z,14.57
2022-10-15T11:07:18.139Z,14.88
2022-10-15T11:10:06.345Z,14.84
2022-10-15T11:12:39.901Z,14.69
2022-10-15T11:15:25.452Z,14.81
2022-10-15T11:18:01.634Z,14.77
2022-10-15T11:20:53.200Z,14.88
2022-10-15T11:23:58.705Z,15.02
2022-10-15T11:26:58.718Z,15.00
2022-10-15T11:29:51.198Z,14.98
2022-10-15T11:32:26.094Z,14.95
2022-10-15T11:35:34.571Z,15.00
2022-10-15T11:38:13.522Z,15.15
2022-10-15T11:40:57.189Z,15.09
2022-10-15T11:43:32.797Z,15.09
2022-10-15T11:46:15.790Z,15.14
2022-10-15T11:49:14.826Z,15.07
2022-10-15T11:52:19.594Z,15.02
2022-10-15T11:54:52.619Z,14.95
2022-10-15T11:57:21.396Z,14.96
2022-10-15T11:59:56.306Z,14.88
2022-10-15T12:02:41.733Z,15.04
2022-10-15T12:05:27.741Z,15.06
2022-10-15T12:07:55.750Z,14.98
2022-10-15T12:10:25.995Z,15.11
2022-10-15T12:13:10.229Z,15.10
2022-10-15T12:16:03.656Z,15.02
2022-10-15T12:18:38.885Z,15.03
2022-10-15T12:21:40.760Z,14.94
2022-10-15T12:24:47.624Z,14.98
2022-10-15T12:27:20.999Z,14.91
2022-10-15T12:29:50.935Z,14.88
2022-10-15T12:32:26.345Z,14.90
2022-10-15T12:34:58.765Z,14.84
2022-10-15T12:37:28.558Z,14.73
2022-10-15T12:39:57.486Z,14.73
2022-10-15T12:42:31.972Z,14.69
2022-10-15T12:45:00.905Z,14.76
2022-10-15T12:47:46.393Z,14.77
2022-10-15T12:50:27.965Z,14.66
2022-10-15T12:53:04.936Z,14.73
2022-10-15T12:55:38.810Z,14.68
2022-10-15T12:58:41.296Z,14.55
2022-10-15T13:01:14.195Z,14.64
2022-10-15T13:03:50.471Z,14.71
2022-10-15T13:06:23.242Z,14.83
2022-10-15T13:09:19.897Z,14.99
2022-10-15T13:11:48.588Z,14.87
2022-10-15T13:14:21.316Z,14.98
2022-10-15T13:16:50.537Z,14.86
2022-10-15T13:19:24.104Z,14.80
2022-10-15T13:22:03.271Z,14.75
2022-10-15T13:24:39.857Z,14.80
2022-10-15T13:27:30.993Z,14.71
2022-10-15T13:30:01.873Z,14.73
2022-10-15T13:32:31.857Z,14.74
2022-10-15T13:35:00.135Z,14.70
2022-10-15T13:37:35.090Z,14.62
2022-10-15T13:40:07.506Z,14.69
2022-10-15T13:42:35.655Z,14.65
2022-10-15T13:45:05.884Z,14.68
2022-10-15T13:47:38.235Z,14.61
2022-10-15T13:50:18.211Z,14.66
2022-10-15T13:52:51.054Z,14.65
2022-10-15T13:55:39.543Z,14.69
2022-10-15T13:58:16.153Z,14.70
2022-10-15T14:00:43.939Z,14.66
2022-10-15T14:03:17.090Z,14.68
2022-10-15T14:05:46.113Z,14.67
2022-10-15T14:08:19.628Z,14.68
2022-10-15T14:10:47.237Z,14.65
2022-10-15T14:13:14.015Z,14.56
2022-10-15T14:15:48.576Z,14.57
2022-10-15T14:18:18.527Z,14.56
2022-10-15T14:20:49.604Z,14.58
2022-10-15T14:23:27.766Z,14.61
2022-10-15T14:26:02.024Z,14.55
2022-10-15T14:28:31.793Z,14.54
2022-10-15T14:30:59.194Z,14.61
2022-10-15T14:33:41.220Z,14.63
2022-10-15T14:36:13.103Z,14.50
2022-10-15T14:38:42.178Z,14.62
2022-10-15T14:41:26.123Z,14.66
2022-10-15T14:44:05.047Z,14.65
2022-10-15T14:46:41.512Z,14.66
2022-10-15T14:49:25.995Z,14.66
2022-10-15T14:52:06.163Z,14.64
2022-10-15T14:54:43.327Z,14.56
2022-10-15T14:57:41.378Z,14.68
2022-10-15T15:00:17.581Z,14.66
2022-10-15T15:02:45.181Z,14.61
2022-10-15T15:05:12.187Z,14.67
2022-10-15T15:07:39.913Z,14.66
2022-10-15T15:10:08.794Z,14.62
2022-10-15T15:12:38.491Z,14.66
2022-10-15T15:15:17.670Z,14.54
2022-10-15T15:17:48.755Z,14.63
2022-10-15T15:20:20.171Z,14.63
2022-10-15T15:22:50.544Z,14.56
2022-10-15T15:25:21.003Z,14.63
2022-10-15T15:27:48.286Z,14.64
2022-10-15T15:30:19.750Z,14.55
2022-10-15T15:32:48.125Z,14.64
2022-10-15T15:35:30.521Z,14.55
2022-10-15T15:37:57.236Z,14.52
2022-10-15T15:40:25.005Z,14.60
2022-10-15T15:42:51.803Z,14.60
2022-10-15T15:45:21.843Z,14.48
2022-10-15T15:47:48.888Z,14.42
2022-10-15T15:50:17.217Z,14.40
2022-10-15T15:52:44.491Z,14.40
2022-10-15T15:55:11.848Z,14.43
2022-10-15T15:57:39.251Z,14.42
2022-10-15T16:00:09.210Z,14.47
2022-10-15T16:02:38.804Z,14.27
2022-10-15T16:05:07.349Z,14.25
2022-10-15T16:07:34.939Z,14.13
2022-10-15T16:10:02.132Z,14.29
2022-10-15T16:12:28.909Z,14.20
2022-10-15T16:14:56.219Z,14.09
2022-10-15T16:17:24.521Z,14.13
2022-10-15T16:19:51.517Z,14.19
2022-10-15T16:22:18.253Z,14.24
2022-10-15T16:24:46.116Z,14.15
2022-10-15T16:27:13.065Z,14.09
2022-10-15T16:29:41.109Z,14.09
2022-10-15T16:32:07.926Z,14.07
2022-10-15T16:34:34.840Z,14.10
2022-10-15T16:37:02.031Z,13.95
2022-10-15T16:39:28.831Z,13.97
2022-10-15T16:41:56.200Z,13.95
2022-10-15T16:44:23.063Z,13.93
2022-10-15T16:46:50.265Z,14.03
2022-10-15T16:49:17.100Z,14.08
2022-10-15T16:51:44.454Z,14.12
2022-10-15T16:54:14.161Z,13.96
2022-10-15T16:56:41.494Z,13.90
2022-10-15T16:59:09.930Z,13.88
2022-10-15T17:01:37.048Z,13.90
2022-10-15T17:04:06.623Z,13.96
2022-10-15T17:06:33.729Z,13.91
2022-10-15T17:09:04.708Z,13.93
2022-10-15T17:11:36.600Z,14.01
2022-10-15T17:14:07.633Z,13.90
2022-10-15T17:16:39.649Z,13.82
2022-10-15T17:19:10.208Z,13.77
2022-10-15T17:21:38.215Z,13.85
2022-10-15T17:24:07.789Z,13.77
2022-10-15T17:26:39.457Z,13.83
2022-10-15T17:29:12.342Z,13.72
2022-10-15T17:31:39.866Z,13.72
2022-10-15T17:34:12.144Z,13.75
2022-10-15T17:36:45.681Z,13.73
2022-10-15T17:39:18.338Z,13.61
2022-10-15T17:41:46.835Z,13.54
2022-10-15T17:44:13.800Z,13.46
2022-10-15T17:46:41.584Z,13.43
2022-10-15T17:49:10.501Z,13.39
2022-10-15T17:51:40.855Z,13.36
2022-10-15T17:54:09.512Z,13.34
2022-10-15T17:56:42.288Z,13.24
2022-10-15T17:59:12.272Z,13.27
2022-10-15T18:04:29.771Z,13.22
2022-10-15T18:06:57.638Z,13.35
2022-10-15T18:09:28.906Z,13.12
2022-10-15T18:11:57.607Z,13.13
2022-10-15T18:14:25.228Z,13.08
2022-10-15T18:16:53.075Z,13.12
2022-10-15T18:19:22.492Z,13.22
2022-10-15T18:21:52.872Z,13.16
2022-10-15T18:24:22.373Z,13.18
2022-10-15T18:26:53.826Z,13.19
2022-10-15T18:29:23.916Z,13.17
2022-10-15T18:31:57.161Z,13.22
2022-10-15T18:34:25.923Z,13.18
2022-10-15T18:36:54.228Z,13.19
2022-10-15T18:39:23.523Z,13.16
2022-10-15T18:41:52.441Z,13.25
2022-10-15T18:44:22.002Z,13.24
2022-10-15T18:46:50.285Z,13.35
2022-10-15T18:49:19.156Z,13.31
2022-10-15T18:51:46.782Z,13.37
2022-10-15T18:54:14.681Z,13.39
2022-10-15T18:56:42.035Z,13.41
2022-10-15T18:59:09.150Z,13.36
2022-10-15T19:01:39.676Z,13.25
2022-10-15T19:04:10.129Z,13.16
2022-10-15T19:06:40.984Z,13.19
2022-10-15T19:09:11.716Z,13.16
2022-10-15T19:11:40.831Z,13.11
2022-10-15T19:14:08.003Z,13.12
2022-10-15T19:16:35.862Z,13.04
2022-10-15T19:19:04.447Z,13.03
2022-10-15T19:21:32.420Z,13.01
2022-10-15T19:24:00.327Z,13.09
2022-10-15T19:26:28.623Z,12.95
2022-10-15T19:28:57.655Z,12.92
2022-10-15T19:31:36.368Z,12.86
2022-10-15T19:34:03.657Z,12.77
2022-10-15T19:36:33.785Z,12.78
2022-10-15T19:39:02.671Z,12.76
2022-10-15T19:41:30.265Z,12.57
2022-10-15T19:43:57.646Z,12.53
2022-10-15T19:46:25.553Z,12.41
2022-10-15T19:48:52.482Z,12.39
2022-10-15T19:51:20.358Z,12.46
2022-10-15T19:53:52.065Z,12.38
2022-10-15T19:56:19.444Z,12.43
2022-10-15T19:58:46.407Z,12.65
2022-10-15T20:01:13.995Z,12.48
2022-10-15T20:03:41.578Z,12.43
2022-10-15T20:06:09.139Z,12.46
2022-10-15T20:08:37.695Z,12.47
2022-10-15T20:11:09.134Z,12.48
2022-10-15T20:13:36.591Z,12.48
2022-10-15T20:16:07.146Z,12.52
2022-10-15T20:18:35.129Z,12.50
2022-10-15T20:21:08.930Z,12.53
2022-10-15T20:23:38.169Z,12.56
2022-10-15T20:26:06.998Z,12.52
2022-10-15T20:28:38.606Z,12.59
2022-10-15T20:31:11.741Z,12.60
2022-10-15T20:33:38.917Z,12.48
2022-10-15T20:36:14.565Z,12.55
2022-10-15T20:38:42.446Z,12.46
2022-10-15T20:41:14.685Z,12.55
2022-10-15T20:43:43.035Z,12.49
2022-10-15T20:46:33.035Z,12.49
2022-10-15T20:49:09.425Z,12.55
2022-10-15T20:51:39.723Z,12.58
2022-10-15T20:54:07.257Z,12.60
2022-10-15T20:56:34.330Z,12.36
2022-10-15T20:59:01.410Z,12.20
2022-10-15T21:01:28.480Z,12.35
2022-10-15T21:03:55.421Z,12.10
2022-10-15T21:06:22.344Z,12.29
2022-10-15T21:08:51.399Z,12.38
2022-10-15T21:11:18.358Z,12.22
2022-10-15T21:13:47.304Z,12.24
2022-10-15T21:16:18.515Z,12.30
2022-10-15T21:18:45.517Z,12.43
2022-10-15T21:21:14.309Z,12.09
2022-10-15T21:23:42.263Z,12.22
2022-10-15T21:26:12.418Z,12.05
2022-10-15T21:28:39.708Z,12.16
2022-10-15T21:31:11.592Z,12.39
2022-10-15T21:33:39.533Z,12.26
2022-10-15T21:36:14.505Z,12.21
2022-10-15T21:38:42.083Z,11.82
2022-10-15T21:41:09.257Z,11.86
2022-10-15T21:43:36.169Z,12.21
2022-10-15T21:46:12.499Z,12.34
2022-10-15T21:48:40.582Z,12.26
2022-10-15T21:51:18.122Z,12.09
2022-10-15T21:53:45.263Z,12.14
2022-10-15T21:56:12.321Z,12.17
2022-10-15T21:58:40.279Z,12.30
2022-10-15T22:01:09.176Z,12.11
2022-10-15T22:03:36.009Z,12.22
2022-10-15T22:06:02.871Z,12.13
2022-10-15T22:08:30.263Z,12.33
2022-10-15T22:11:17.949Z,12.23
2022-10-15T22:13:46.955Z,12.15
2022-10-15T22:16:14.814Z,12.18
2022-10-15T22:18:41.935Z,12.19
2022-10-15T22:21:17.417Z,12.08
2022-10-15T22:23:49.962Z,12.05
2022-10-15T22:26:19.206Z,11.89
2022-10-15T22:28:46.961Z,12.04
2022-10-15T22:31:16.842Z,12.10
2022-10-15T22:33:45.297Z,11.86
2022-10-15T22:36:21.367Z,11.84
2022-10-15T22:38:52.985Z,12.14
2022-10-15T22:41:26.500Z,11.70
2022-10-15T22:43:55.685Z,11.94
2022-10-15T22:46:25.730Z,11.66
2022-10-15T22:48:53.917Z,12.06
2022-10-15T22:51:26.964Z,12.03
2022-10-15T22:54:00.345Z,11.59
2022-10-15T22:56:28.607Z,11.67
2022-10-15T22:58:57.225Z,11.98
2022-10-15T23:03:37.718Z,11.69
2022-10-15T23:06:07.522Z,11.54
2022-10-15T23:08:34.629Z,11.94
2022-10-15T23:11:19.842Z,11.67
2022-10-15T23:13:47.763Z,11.80
2022-10-15T23:16:17.008Z,11.71
2022-10-15T23:18:45.131Z,11.77
2022-10-15T23:21:15.085Z,11.76
2022-10-15T23:23:42.856Z,11.82
2022-10-15T23:26:15.410Z,11.76
2022-10-15T23:28:43.357Z,11.74
2022-10-15T23:31:17.733Z,11.69
2022-10-15T23:33:45.424Z,11.69
2022-10-15T23:36:12.562Z,11.71
2022-10-15T23:38:39.298Z,11.74
2022-10-15T23:41:08.564Z,11.66
2022-10-15T23:43:35.312Z,11.61
2022-10-15T23:46:02.476Z,11.64
2022-10-15T23:48:29.255Z,11.55
2022-10-15T23:51:00.869Z,11.76
2022-10-15T23:53:31.890Z,11.65
2022-10-15T23:56:01.815Z,11.58
2022-10-15T23:58:28.416Z,11.58
